Sakaide Maru — 3EYR6 — position and weather

sailwx.info

Track history (hours):
 
Tides and Currents Weather Stations Pressure Air Temp Water Temp Dewpoint Dewpoint Depression Visibility Wind Speed Wind Dir Waves Ship Positions

Sakaide Maru

Last reported at 2015-Jun-16 06:28 UTC. Time now 2015-Jul-04 03:21 UTC.
Position N 33°57' E 134°58'.
Warning: this ship's position is 17 days out of date.

Length 255 m; draft 7.7 m.

Type: Cargo ship. MMSI: 354898000.

Date/timePositionNaut miles runAvg speedWind from/ knotsBaromVisibWave heightAir tempDewpointWater temp
2015-Jun-16 06:28N 33°57' E 134°58'1213.3
2015-Jun-16 05:34N 34°09' E 134°57'1413.2
2015-Jun-16 04:30N 34°22' E 134°60'1313.4
2015-Jun-16 03:33N 34°33' E 135°07'1211.8
2015-Jun-16 02:33N 34°35' E 134°53'1514.6
2015-Jun-16 01:32N 34°29' E 134°36'  
2015-Jun-12 04:22N 34°35' E 134°52'810.1
2015-Jun-12 03:32N 34°37' E 135°02'7 6.8
2015-Jun-12 02:33N 34°35' E 135°10'1 1.1
2015-Jun-12 01:29N 34°35' E 135°11'0 0.0
2015-Jun-12 00:29N 34°35' E 135°11'0 0.0
2015-Jun-11 23:29N 34°35' E 135°11'0 0.2
2015-Jun-11 22:23N 34°35' E 135°11'0 0.1
2015-Jun-11 21:29N 34°35' E 135°11'0 0.0
2015-Jun-11 20:17N 34°35' E 135°11'0 0.1
2015-Jun-11 19:23N 34°35' E 135°11'0 0.1
2015-Jun-11 18:29N 34°35' E 135°11'0 0.2
2015-Jun-11 17:23N 34°34' E 135°11'0 0.0
2015-Jun-11 16:23N 34°34' E 135°11'0 0.1
2015-Jun-11 15:29N 34°34' E 135°11'0 0.0
2015-Jun-11 14:23N 34°34' E 135°11'0 0.0
2015-Jun-11 13:29N 34°34' E 135°11'0 0.1
2015-Jun-11 12:29N 34°34' E 135°11'0 0.0
2015-Jun-11 11:23N 34°34' E 135°11'0 0.1
2015-Jun-11 10:29N 34°34' E 135°11'0 0.0
2015-Jun-11 09:29N 34°34' E 135°11'0 0.2
2015-Jun-11 08:29N 34°35' E 135°11'0 0.1
2015-Jun-11 07:29N 34°35' E 135°11'0 0.1
2015-Jun-11 06:29N 34°35' E 135°11'2 1.7
2015-Jun-11 05:33N 34°33' E 135°10'1212.3
2015-Jun-11 04:33N 34°23' E 135°03'1211.7
2015-Jun-11 03:33N 34°11' E 134°59'7 6.9
2015-Jun-11 02:33N 34°04' E 134°59'9 7.6
2015-Jun-11 01:22N 33°55' E 134°58'  
Track history (hours):
 
Tides and Currents Weather Stations Pressure Air Temp Water Temp Dewpoint Dewpoint Depression Visibility Wind Speed Wind Dir Waves Ship Positions

Sakaide Maru

Last reported at 2015-Jun-16 06:28 UTC. Time now 2015-Jul-04 03:21 UTC.
Position N 33°57' E 134°58'.
Warning: this ship's position is 17 days out of date.

Length 255 m; draft 7.7 m.

Type: Cargo ship. MMSI: 354898000.

Date/timePositionNaut miles runAvg speedWind from/ knotsBaromVisibWave heightAir tempDewpointWater temp
2015-Jun-16 06:28N 33°57' E 134°58'1213.3
2015-Jun-16 05:34N 34°09' E 134°57'1413.2
2015-Jun-16 04:30N 34°22' E 134°60'1313.4
2015-Jun-16 03:33N 34°33' E 135°07'1211.8
2015-Jun-16 02:33N 34°35' E 134°53'1514.6
2015-Jun-16 01:32N 34°29' E 134°36'  
2015-Jun-12 04:22N 34°35' E 134°52'810.1
2015-Jun-12 03:32N 34°37' E 135°02'7 6.8
2015-Jun-12 02:33N 34°35' E 135°10'1 1.1
2015-Jun-12 01:29N 34°35' E 135°11'0 0.0
2015-Jun-12 00:29N 34°35' E 135°11'0 0.0
2015-Jun-11 23:29N 34°35' E 135°11'0 0.2
2015-Jun-11 22:23N 34°35' E 135°11'0 0.1
2015-Jun-11 21:29N 34°35' E 135°11'0 0.0
2015-Jun-11 20:17N 34°35' E 135°11'0 0.1
2015-Jun-11 19:23N 34°35' E 135°11'0 0.1
2015-Jun-11 18:29N 34°35' E 135°11'0 0.2
2015-Jun-11 17:23N 34°34' E 135°11'0 0.0
2015-Jun-11 16:23N 34°34' E 135°11'0 0.1
2015-Jun-11 15:29N 34°34' E 135°11'0 0.0
2015-Jun-11 14:23N 34°34' E 135°11'0 0.0
2015-Jun-11 13:29N 34°34' E 135°11'0 0.1
2015-Jun-11 12:29N 34°34' E 135°11'0 0.0
2015-Jun-11 11:23N 34°34' E 135°11'0 0.1
2015-Jun-11 10:29N 34°34' E 135°11'0 0.0
2015-Jun-11 09:29N 34°34' E 135°11'0 0.2
2015-Jun-11 08:29N 34°35' E 135°11'0 0.1
2015-Jun-11 07:29N 34°35' E 135°11'0 0.1
2015-Jun-11 06:29N 34°35' E 135°11'2 1.7
2015-Jun-11 05:33N 34°33' E 135°10'1212.3
2015-Jun-11 04:33N 34°23' E 135°03'1211.7
2015-Jun-11 03:33N 34°11' E 134°59'7 6.9
2015-Jun-11 02:33N 34°04' E 134°59'9 7.6
2015-Jun-11 01:22N 33°55' E 134°58'  

Dump ship's entire track history